Portada
METAR-TAF:

METAR-TAF

Aeroports :

Fergana, Uzbekistan

latitud: 40-21-32N, longitud: 071-44-42E, altitud: 625 m

Observació

L'informe es va fer fa 48 minuts, a les 00:00 UTC
Vent 4 kt del Oest/Sud-Oest
Temperatura 12°C
Humitat 62%
Pressió 1020 hPa
Visibilitat 10 km o més
Cel ennuvolat a una alçada de 6600 ft, Cumulonimbus.

METAR: UTFF 020000Z 25004KT 9999 BKN066CB 12/05 Q1020 R99/CLRD70

Hora: 05:48 (00:48 UTC)

Pronòstic

L'informe es va fer fa 48 minuts, a les 00:00 UTC
Pronòstic vàlid del 02 a les 01 UTC al 02 a les 10 UTC
Vent 10 kt del Sud-Est
Visibilitat: 7000 m
Núvols disperses a una alçada de 6000 ft, Cumulonimbus.
Temporalment
l' 02 a les 01 UTC al 02 a les 07 UTC
Vent 10 kt del Nord/Nord-Oest
Visibilitat: 3000 m
Cel ennuvolat a una alçada de 3000 ft, Cumulonimbus.
xàfecs de pluja, boirina

TAF: UTFF 020000Z 0201/0210 14010KT 7000 SCT060CB TEMPO 0201/0207 33010KT 3000 -SHRA BR BKN030CB

Observacions i pronòstics meteorològics de més de 4000 aeroports (METAR i TAF).

Les estacions disponibles són els punts grocs i vermells al mapa.

Posi el ratolí al punt desitjat per veure el nom de l'estació.

Feu clic per veure les observacions i els pronòstics meteorològics.

Per canviar el mapa: feu clic els botons verds amb una creu de color negre per apropar; al botó verd amb un guió per allunyar la imatge; o en les fletxes verdes per a mapes adjacents.


METAR-TAF: